Time;durP1;ratioP1;P1;durP2;ratioP2;P2;SDS_P1;SDS_P2;PMS_P1;PMS_P2;Temp;Humidity;BMP_temperature;BMP_pressure;BME280_temperature;BME280_humidity;BME280_pressure;Samples;Min_cycle;Max_cycle;Signal;HPM_P1;HPM_P2
2020/12/31 00:01:04;;;;;;;16.38;6.45;;;12.70;99.90;;;;;;6185079;23;20048;-85
2020/12/31 00:03:30;;;;;;;11.38;4.25;;;12.70;99.90;;;;;;6184543;23;20001;-86
2020/12/31 00:05:56;;;;;;;18.75;5.00;;;12.90;99.90;;;;;;6184601;23;20064;-84
2020/12/31 00:08:22;;;;;;;11.13;4.68;;;13.00;99.90;;;;;;6157642;23;20005;-84
2020/12/31 00:10:48;;;;;;;13.88;4.50;;;12.80;99.90;;;;;;6157896;23;20013;-85
2020/12/31 00:13:13;;;;;;;10.10;4.30;;;12.70;99.90;;;;;;6157454;23;20363;-83
2020/12/31 00:15:39;;;;;;;14.77;4.45;;;12.60;99.90;;;;;;6184019;23;20005;-85
2020/12/31 00:18:08;;;;;;;14.68;5.25;;;12.50;99.90;;;;;;6174457;23;20004;-79
2020/12/31 00:20:34;;;;;;;13.00;4.78;;;12.70;99.90;;;;;;6172870;23;20001;-80
2020/12/31 00:23:14;;;;;;;12.57;4.40;;;12.70;99.90;;;;;;6181376;23;20008;-83
2020/12/31 00:25:50;;;;;;;9.95;4.40;;;12.50;99.90;;;;;;6156127;23;20060;-83
2020/12/31 00:28:17;;;;;;;13.50;4.68;;;12.40;99.90;;;;;;6181091;23;20009;-80
2020/12/31 00:30:43;;;;;;;16.38;4.78;;;12.40;99.90;;;;;;6179829;23;20010;-80
2020/12/31 00:33:13;;;;;;;15.27;5.18;;;12.40;99.90;;;;;;6181057;23;19997;-82
2020/12/31 00:35:39;;;;;;;43.20;22.05;;;12.50;99.90;;;;;;6183312;23;20060;-84
2020/12/31 00:38:05;;;;;;;52.08;26.48;;;13.00;99.90;;;;;;6156307;23;20005;-84
2020/12/31 00:40:33;;;;;;;15.27;7.28;;;13.20;99.90;;;;;;6179541;23;19997;-78
2020/12/31 00:43:00;;;;;;;17.20;6.40;;;12.90;99.90;;;;;;6155422;23;20013;-82
2020/12/31 00:45:26;;;;;;;26.70;13.93;;;12.80;99.90;;;;;;6156121;23;20001;-81
2020/12/31 00:47:52;;;;;;;45.63;22.25;;;12.80;99.90;;;;;;6182822;23;20020;-81
2020/12/31 00:50:18;;;;;;;16.38;5.88;;;12.90;99.90;;;;;;6183603;23;19993;-80
2020/12/31 00:52:43;;;;;;;11.82;4.25;;;12.60;99.90;;;;;;6183453;23;20052;-82
2020/12/31 00:55:09;;;;;;;12.88;4.35;;;12.30;99.90;;;;;;6183448;23;20064;-85
2020/12/31 00:57:35;;;;;;;9.32;4.15;;;12.30;99.90;;;;;;6184046;23;20005;-82
2020/12/31 01:00:01;;;;;;;12.88;4.50;;;12.20;99.90;;;;;;6183446;23;20083;-82
2020/12/31 01:02:26;;;;;;;9.45;4.10;;;12.10;99.90;;;;;;6183146;23;20482;-82
2020/12/31 01:04:52;;;;;;;16.25;4.82;;;12.20;99.90;;;;;;6184075;23;20001;-84
2020/12/31 01:07:18;;;;;;;14.55;4.47;;;12.20;99.90;;;;;;6183262;23;20009;-81
2020/12/31 01:09:44;;;;;;;12.57;4.43;;;12.30;99.90;;;;;;6183916;23;20004;-83
2020/12/31 01:12:10;;;;;;;13.73;4.05;;;12.20;99.90;;;;;;6183697;23;20004;-81
2020/12/31 01:14:36;;;;;;;8.45;4.10;;;12.30;99.90;;;;;;6183480;23;20017;-82
2020/12/31 01:17:02;;;;;;;12.93;4.43;;;12.20;99.90;;;;;;6184112;23;20004;-80
2020/12/31 01:19:28;;;;;;;11.13;4.55;;;12.20;99.90;;;;;;6183554;23;20032;-80
2020/12/31 01:21:54;;;;;;;12.80;4.55;;;12.30;99.90;;;;;;6183555;23;20080;-79
2020/12/31 01:24:20;;;;;;;10.75;4.53;;;12.30;99.90;;;;;;6157034;23;20029;-81
2020/12/31 01:26:46;;;;;;;9.18;4.05;;;12.30;99.90;;;;;;6183529;23;20028;-80
2020/12/31 01:29:12;;;;;;;8.13;4.00;;;12.10;99.90;;;;;;6185067;23;20024;-82
2020/12/31 01:31:38;;;;;;;11.20;4.45;;;12.20;99.90;;;;;;6159152;23;20005;-81
2020/12/31 01:34:06;;;;;;;9.65;4.45;;;12.10;99.90;;;;;;6185531;23;20044;-80
2020/12/31 01:36:33;;;;;;;11.35;4.40;;;12.00;99.90;;;;;;6158722;23;20088;-79
2020/12/31 01:38:59;;;;;;;12.00;4.35;;;12.00;99.90;;;;;;6185043;23;20005;-80
2020/12/31 01:41:26;;;;;;;10.15;4.10;;;12.00;99.90;;;;;;6185275;23;20315;-81
2020/12/31 01:44:11;;;;;;;12.27;4.82;;;12.00;99.90;;;;;;6158849;23;20323;-82
2020/12/31 01:46:38;;;;;;;14.43;4.07;;;12.10;99.90;;;;;;6185295;23;20001;-82
2020/12/31 01:49:07;;;;;;;7.82;4.35;;;12.20;99.90;;;;;;6159066;23;20087;-82
2020/12/31 01:51:34;;;;;;;14.82;5.47;;;12.20;99.90;;;;;;6185424;23;19997;-80
2020/12/31 01:54:01;;;;;;;12.40;4.53;;;12.20;99.90;;;;;;6185046;23;20005;-83
2020/12/31 01:56:29;;;;;;;9.85;4.95;;;12.20;99.90;;;;;;6185659;23;20001;-81
2020/12/31 01:58:56;;;;;;;11.65;4.20;;;12.20;99.90;;;;;;6185068;23;20001;-80
2020/12/31 02:01:23;;;;;;;9.00;4.10;;;12.10;99.90;;;;;;6185047;23;20001;-82
2020/12/31 02:03:49;;;;;;;11.07;4.32;;;12.10;99.90;;;;;;6158639;23;20016;-83
2020/12/31 02:06:16;;;;;;;10.23;4.05;;;12.00;99.90;;;;;;6185288;23;20025;-81
2020/12/31 02:08:45;;;;;;;16.35;6.70;;;12.00;99.90;;;;;;6184711;23;20005;-82
2020/12/31 02:11:15;;;;;;;15.70;7.13;;;11.50;99.90;;;;;;6184893;23;20009;-80
2020/12/31 02:13:42;;;;;;;16.73;5.97;;;11.30;99.90;;;;;;6184724;23;20064;-83
2020/12/31 02:16:15;;;;;;;17.90;6.05;;;11.20;99.90;;;;;;6184895;23;20001;-82
2020/12/31 02:18:57;;;;;;;15.95;6.55;;;11.20;99.90;;;;;;6184942;23;20058;-83
2020/12/31 02:21:31;;;;;;;13.05;6.50;;;11.20;99.90;;;;;;6158364;23;20095;-81
2020/12/31 02:23:59;;;;;;;17.85;6.22;;;11.20;99.90;;;;;;6184839;23;20041;-80
2020/12/31 02:26:28;;;;;;;13.95;5.32;;;11.30;99.90;;;;;;6184946;23;20012;-81
2020/12/31 02:28:56;;;;;;;12.27;5.90;;;11.40;99.90;;;;;;6184586;23;20041;-80
2020/12/31 02:31:23;;;;;;;14.55;5.30;;;10.80;99.90;;;;;;6185222;23;19997;-83
2020/12/31 02:33:53;;;;;;;15.20;5.75;;;10.70;99.90;;;;;;6184743;23;20063;-82
2020/12/31 02:36:20;;;;;;;15.30;5.67;;;10.90;99.90;;;;;;6158463;23;20001;-82
2020/12/31 02:38:46;;;;;;;18.75;5.85;;;11.10;99.90;;;;;;6184475;23;20230;-81
2020/12/31 02:41:13;;;;;;;13.98;5.88;;;11.20;99.90;;;;;;6157614;23;20009;-81
2020/12/31 02:43:40;;;;;;;10.45;5.10;;;11.30;99.90;;;;;;6182442;23;20013;-80
2020/12/31 02:48:42;;;;;;;12.52;4.70;;;11.50;99.90;;;;;;6182532;23;20107;-82
2020/12/31 02:51:08;;;;;;;16.35;4.85;;;11.50;99.90;;;;;;6184690;23;20023;-80
2020/12/31 02:53:35;;;;;;;7.85;4.15;;;11.30;99.90;;;;;;6184609;23;20001;-82
2020/12/31 02:56:09;;;;;;;9.55;4.38;;;11.30;99.90;;;;;;6184546;23;20312;-80
2020/12/31 02:58:36;;;;;;;7.63;3.65;;;11.30;99.90;;;;;;6184737;23;19997;-82
2020/12/31 03:01:02;;;;;;;3.65;2.55;;;11.30;99.90;;;;;;6157629;23;20332;-82
2020/12/31 03:03:27;;;;;;;2.88;2.38;;;11.20;99.90;;;;;;6157929;23;20486;-80
2020/12/31 03:05:53;;;;;;;3.28;2.40;;;11.10;99.90;;;;;;6158048;23;20064;-80
2020/12/31 03:08:19;;;;;;;2.53;2.33;;;11.30;99.90;;;;;;6184778;23;20001;-81
2020/12/31 03:10:46;;;;;;;4.15;2.50;;;11.40;99.90;;;;;;6158137;23;20335;-82
2020/12/31 03:13:11;;;;;;;3.22;2.50;;;11.40;99.90;;;;;;6158719;23;20032;-83
2020/12/31 03:15:37;;;;;;;2.60;2.38;;;11.30;99.90;;;;;;6184876;23;20001;-81
2020/12/31 03:18:03;;;;;;;2.63;2.40;;;11.20;99.90;;;;;;6158437;23;20098;-80
2020/12/31 03:20:28;;;;;;;3.50;3.20;;;11.20;99.90;;;;;;6184394;23;20087;-81
2020/12/31 03:22:54;;;;;;;3.70;2.50;;;11.20;99.90;;;;;;6158410;23;20086;-82
2020/12/31 03:25:20;;;;;;;2.60;2.40;;;11.20;99.90;;;;;;6184212;23;19997;-79
2020/12/31 03:27:46;;;;;;;3.08;2.60;;;11.10;99.90;;;;;;6184516;23;19993;-80
2020/12/31 03:30:11;;;;;;;4.60;2.97;;;11.20;99.90;;;;;;6184333;23;20004;-81
2020/12/31 03:32:37;;;;;;;4.75;3.00;;;11.20;99.90;;;;;;6184564;23;20414;-80
2020/12/31 03:35:06;;;;;;;3.85;2.70;;;11.30;99.90;;;;;;6184209;23;20009;-82
2020/12/31 03:37:31;;;;;;;3.78;2.90;;;10.80;99.90;;;;;;6184390;23;20004;-82
2020/12/31 03:39:57;;;;;;;4.40;2.80;;;10.80;99.90;;;;;;6184247;23;20005;-80
2020/12/31 03:42:23;;;;;;;4.10;2.72;;;10.80;99.90;;;;;;6157858;23;20418;-81
2020/12/31 03:44:49;;;;;;;4.38;2.88;;;10.90;99.90;;;;;;6184307;23;20027;-83
2020/12/31 03:47:17;;;;;;;6.13;3.40;;;10.70;99.90;;;;;;6157912;23;20053;-81
2020/12/31 03:49:43;;;;;;;5.30;3.58;;;10.50;99.90;;;;;;6158056;23;20308;-80
2020/12/31 03:52:09;;;;;;;9.43;4.50;;;10.70;99.90;;;;;;6157509;23;20457;-80
2020/12/31 03:54:34;;;;;;;5.88;3.15;;;10.60;99.90;;;;;;6184038;23;20005;-81
2020/12/31 03:57:00;;;;;;;4.85;3.42;;;10.40;99.90;;;;;;6157687;23;20009;-81
2020/12/31 03:59:26;;;;;;;5.47;3.30;;;10.50;99.90;;;;;;6157647;23;20009;-82
2020/12/31 04:01:52;;;;;;;7.75;4.03;;;10.60;99.90;;;;;;6184564;23;20013;-80
2020/12/31 04:04:17;;;;;;;8.00;3.50;;;10.80;99.90;;;;;;6184255;23;20426;-81
2020/12/31 04:06:43;;;;;;;11.70;3.45;;;10.80;99.90;;;;;;6183881;23;20051;-81
2020/12/31 04:09:09;;;;;;;4.88;3.30;;;10.90;99.90;;;;;;6157951;23;20009;-80
2020/12/31 04:11:34;;;;;;;4.38;2.92;;;10.90;99.90;;;;;;6156962;23;20004;-81
2020/12/31 04:14:00;;;;;;;4.07;2.70;;;10.80;99.90;;;;;;6157253;23;20009;-82
2020/12/31 04:16:26;;;;;;;5.97;2.63;;;10.60;99.90;;;;;;6183382;23;20020;-80
2020/12/31 04:18:52;;;;;;;5.03;3.25;;;10.80;99.90;;;;;;6184202;23;20011;-83
2020/12/31 04:21:21;;;;;;;3.58;2.78;;;10.50;99.90;;;;;;6183788;23;20023;-82
2020/12/31 04:23:48;;;;;;;8.37;2.97;;;10.60;99.90;;;;;;6157549;23;20009;-84
2020/12/31 04:26:14;;;;;;;3.80;3.05;;;10.60;99.90;;;;;;6183826;23;20257;-80
2020/12/31 04:28:40;;;;;;;5.07;2.90;;;10.70;99.90;;;;;;6156999;23;20009;-80
2020/12/31 04:31:06;;;;;;;8.45;3.95;;;10.70;99.90;;;;;;6157406;23;20009;-81
2020/12/31 04:33:31;;;;;;;4.35;3.10;;;10.80;99.90;;;;;;6183836;23;20020;-82
2020/12/31 04:35:57;;;;;;;4.00;2.90;;;10.80;99.90;;;;;;6183909;23;20008;-79
2020/12/31 04:38:23;;;;;;;4.82;3.03;;;10.70;99.90;;;;;;6157424;23;20418;-80
2020/12/31 04:40:49;;;;;;;6.32;3.13;;;10.60;99.90;;;;;;6157235;23;20047;-81
2020/12/31 04:43:15;;;;;;;6.55;3.20;;;10.60;99.90;;;;;;6183533;23;20051;-80
2020/12/31 04:45:43;;;;;;;6.82;3.72;;;10.80;99.90;;;;;;6182694;23;20009;-78
2020/12/31 04:48:29;;;;;;;4.07;2.90;;;10.50;99.90;;;;;;6182677;23;20017;-79
2020/12/31 04:50:58;;;;;;;3.83;3.05;;;10.70;99.90;;;;;;6141002;23;20438;-82
2020/12/31 04:53:25;;;;;;;5.35;3.13;;;10.50;99.90;;;;;;6183787;23;20339;-81
2020/12/31 04:55:51;;;;;;;8.68;3.70;;;10.60;99.90;;;;;;6157349;23;20384;-83
2020/12/31 04:58:17;;;;;;;7.57;3.63;;;10.30;99.90;;;;;;6156783;23;20000;-82
2020/12/31 05:00:44;;;;;;;6.35;3.40;;;10.40;99.90;;;;;;6183053;23;20323;-81
2020/12/31 05:03:10;;;;;;;7.32;3.65;;;10.40;99.90;;;;;;6158065;23;20079;-84
2020/12/31 05:05:37;;;;;;;7.30;3.83;;;10.20;99.90;;;;;;6185441;23;19997;-81
2020/12/31 05:08:05;;;;;;;7.30;3.70;;;10.40;99.90;;;;;;6159253;23;20009;-82
2020/12/31 05:10:31;;;;;;;6.40;3.78;;;10.30;99.90;;;;;;6185724;23;20064;-80
2020/12/31 05:13:02;;;;;;;7.93;3.67;;;10.20;99.90;;;;;;6159157;23;20005;-81
2020/12/31 05:15:34;;;;;;;7.05;3.75;;;10.40;99.90;;;;;;6159237;23;20047;-81
2020/12/31 05:18:26;;;;;;;5.43;3.58;;;10.40;99.90;;;;;;6185602;23;20323;-80
2020/12/31 05:20:54;;;;;;;5.85;4.00;;;10.30;99.90;;;;;;6159163;23;20080;-82
2020/12/31 05:23:24;;;;;;;6.20;3.80;;;10.40;99.90;;;;;;6159092;23;20001;-82
2020/12/31 05:25:50;;;;;;;;;;;10.00;99.90;;;;;;6185805;23;20001;-81
2020/12/31 05:28:23;;;;;;;7.03;3.58;;;10.10;99.90;;;;;;6185523;23;19904;-79
2020/12/31 05:30:50;;;;;;;9.43;3.90;;;10.00;99.90;;;;;;6185433;23;20005;-80
2020/12/31 05:33:32;;;;;;;7.43;4.13;;;9.90;99.90;;;;;;6159260;23;20382;-82
2020/12/31 05:36:11;;;;;;;5.50;4.30;;;9.90;99.90;;;;;;6158743;23;20012;-81
2020/12/31 05:38:36;;;;;;;7.18;3.80;;;10.00;99.90;;;;;;6159259;23;20358;-81
2020/12/31 05:41:03;;;;;;;12.02;4.53;;;10.30;99.90;;;;;;6158781;23;20453;-80
2020/12/31 05:43:29;;;;;;;7.18;4.35;;;10.20;99.90;;;;;;6158945;23;20060;-81
2020/12/31 05:46:04;;;;;;;7.78;4.60;;;10.30;99.90;;;;;;6185485;23;20009;-82
2020/12/31 05:48:30;;;;;;;8.05;3.95;;;10.40;99.90;;;;;;6185247;23;20363;-82
2020/12/31 05:50:55;;;;;;;8.50;4.07;;;10.40;99.90;;;;;;6159176;23;20579;-80
2020/12/31 05:53:25;;;;;;;9.02;4.30;;;10.30;99.90;;;;;;6158794;23;20012;-83
2020/12/31 05:55:55;;;;;;;9.73;4.13;;;10.20;99.90;;;;;;6158942;23;20009;-82
2020/12/31 05:58:33;;;;;;;7.45;4.68;;;10.20;99.90;;;;;;6158899;23;20012;-81
2020/12/31 06:01:02;;;;;;;8.85;4.00;;;10.40;99.90;;;;;;6158681;23;20101;-83
2020/12/31 06:03:37;;;;;;;7.40;4.00;;;10.40;99.90;;;;;;6185001;23;20001;-80
2020/12/31 06:06:06;;;;;;;6.28;3.88;;;10.50;99.90;;;;;;6158844;23;20015;-82
2020/12/31 06:08:33;;;;;;;6.28;3.80;;;10.40;99.90;;;;;;6184821;23;19997;-83
2020/12/31 06:11:03;;;;;;;7.25;3.83;;;10.40;99.90;;;;;;6184466;23;20017;-82
2020/12/31 06:13:47;;;;;;;9.25;5.00;;;10.30;99.90;;;;;;6157914;23;20025;-79
2020/12/31 06:16:16;;;;;;;8.98;4.85;;;10.30;99.90;;;;;;6185090;23;20005;-82
2020/12/31 06:18:51;;;;;;;9.77;4.68;;;10.20;99.90;;;;;;6158601;23;20043;-81
2020/12/31 06:21:38;;;;;;;38.88;20.70;;;10.60;99.90;;;;;;6184670;23;20005;-80
2020/12/31 06:24:13;;;;;;;48.50;29.52;;;11.10;99.90;;;;;;6184443;23;20008;-78
2020/12/31 06:26:43;;;;;;;53.33;31.45;;;11.60;99.90;;;;;;6157505;23;20009;-78
2020/12/31 06:29:09;;;;;;;26.70;16.42;;;11.20;99.90;;;;;;6157489;23;20401;-81
2020/12/31 06:31:37;;;;;;;51.92;28.60;;;10.90;99.90;;;;;;6184043;23;20478;-79
2020/12/31 06:37:09;;;;;;;27.70;16.00;;;11.10;99.90;;;;;;6184753;23;20458;-80
2020/12/31 06:39:36;;;;;;;12.90;6.95;;;10.90;99.90;;;;;;6157939;23;20005;-82
2020/12/31 06:42:01;;;;;;;10.90;5.00;;;10.50;99.90;;;;;;6157600;23;20005;-79
2020/12/31 06:44:31;;;;;;;12.18;4.80;;;10.50;99.90;;;;;;6158217;23;20040;-80
2020/12/31 06:46:58;;;;;;;9.57;5.85;;;10.50;99.90;;;;;;6157431;23;20067;-78
2020/12/31 06:49:53;;;;;;;8.85;5.15;;;10.50;99.90;;;;;;6184028;23;20008;-80
2020/12/31 06:52:23;;;;;;;10.65;5.57;;;10.50;99.90;;;;;;6183942;23;20005;-79
2020/12/31 06:54:50;;;;;;;8.67;5.90;;;10.50;99.90;;;;;;6157070;23;20016;-79
2020/12/31 06:57:38;;;;;;;12.30;5.65;;;10.50;99.90;;;;;;6183248;23;20220;-79
2020/12/31 07:00:05;;;;;;;7.82;5.70;;;10.60;99.90;;;;;;6157437;23;20039;-80
2020/12/31 07:02:46;;;;;;;9.40;5.95;;;10.70;99.90;;;;;;6157091;23;20013;-81
2020/12/31 07:05:22;;;;;;;8.80;6.10;;;10.60;99.90;;;;;;6184249;23;19993;-80
2020/12/31 07:07:48;;;;;;;10.05;4.95;;;10.60;99.90;;;;;;6184147;23;20032;-82
2020/12/31 07:10:14;;;;;;;9.88;5.47;;;10.60;99.90;;;;;;6157997;23;19998;-83
2020/12/31 07:12:45;;;;;;;174.98;89.35;;;10.70;99.90;;;;;;6184145;23;20008;-81
2020/12/31 07:15:11;;;;;;;;;;;10.80;99.90;;;;;;6184357;23;20095;-82
2020/12/31 07:17:40;;;;;;;15.90;10.13;;;10.90;99.90;;;;;;6157933;23;19946;-82
2020/12/31 07:20:09;;;;;;;12.68;6.60;;;10.80;99.90;;;;;;6158019;23;20037;-84
2020/12/31 07:22:39;;;;;;;11.32;6.03;;;10.80;99.90;;;;;;6183559;23;20009;-81
2020/12/31 07:25:14;;;;;;;10.45;6.45;;;11.10;99.90;;;;;;6168095;23;20093;-82
2020/12/31 07:28:20;;;;;;;12.75;6.10;;;11.20;99.90;;;;;;6152712;23;20009;-82
2020/12/31 07:31:42;;;;;;;10.43;6.25;;;11.50;99.90;;;;;;6154512;23;20060;-82
2020/12/31 07:37:30;;;;;;;18.23;9.32;;;11.60;99.90;;;;;;6154512;23;20021;-84
2020/12/31 07:40:04;;;;;;;18.70;10.38;;;11.60;99.90;;;;;;6154731;23;19998;-83
2020/12/31 07:42:51;;;;;;;17.23;9.80;;;11.70;99.90;;;;;;6145956;23;20339;-83
2020/12/31 07:45:32;;;;;;;15.05;8.40;;;11.90;99.90;;;;;;6152956;23;20012;-82
2020/12/31 07:47:59;;;;;;;15.82;8.57;;;12.00;99.90;;;;;;6154554;23;20360;-83
2020/12/31 07:50:25;;;;;;;17.15;8.55;;;12.30;99.90;;;;;;6154571;23;20380;-82
2020/12/31 07:53:14;;;;;;;11.20;6.70;;;12.70;99.90;;;;;;6154515;23;20009;-83
2020/12/31 07:56:38;;;;;;;11.70;6.40;;;12.80;99.90;;;;;;6134495;23;20092;-84
2020/12/31 07:59:38;;;;;;;;;;;;;;;;;;;;;
2020/12/31 08:02:05;;;;;;;11.63;6.38;;;12.10;99.90;;;;;;6035666;23;20408;-83
2020/12/31 08:07:40;;;;;;;8.32;5.63;;;13.10;99.90;;;;;;6117615;23;20001;-83
2020/12/31 08:10:33;;;;;;;12.88;6.35;;;13.60;99.90;;;;;;6152503;23;20339;-83
2020/12/31 08:16:14;;;;;;;10.82;5.45;;;14.60;99.90;;;;;;6112012;23;20428;-82
2020/12/31 08:18:42;;;;;;;7.95;4.95;;;14.50;99.90;;;;;;6153667;23;20009;-83
2020/12/31 08:21:08;;;;;;;10.95;4.68;;;14.70;99.90;;;;;;6152468;23;20016;-82
2020/12/31 08:23:39;;;;;;;11.75;5.60;;;15.00;99.90;;;;;;6152580;23;20061;-84
2020/12/31 08:26:09;;;;;;;11.02;5.38;;;15.20;99.90;;;;;;6152128;23;20033;-82
2020/12/31 08:28:36;;;;;;;9.52;5.40;;;15.20;99.90;;;;;;6153777;23;20044;-84
2020/12/31 08:31:10;;;;;;;11.48;5.65;;;15.10;99.90;;;;;;6153880;23;20009;-83
2020/12/31 08:33:39;;;;;;;10.43;5.25;;;14.80;99.90;;;;;;6153872;23;20012;-83
2020/12/31 08:36:06;;;;;;;9.75;5.40;;;15.10;99.90;;;;;;6152400;23;20335;-85
2020/12/31 08:38:37;;;;;;;12.70;5.57;;;15.30;99.90;;;;;;6154171;23;19998;-82
2020/12/31 08:41:06;;;;;;;11.70;4.88;;;15.50;99.90;;;;;;6154168;23;20009;-82
2020/12/31 08:43:39;;;;;;;9.23;4.47;;;15.80;99.90;;;;;;6152389;23;20090;-81
2020/12/31 08:46:07;;;;;;;13.13;7.40;;;16.10;99.90;;;;;;6152346;23;20055;-82
2020/12/31 08:48:34;;;;;;;15.38;7.22;;;16.30;99.90;;;;;;6153531;23;20080;-83
2020/12/31 08:51:12;;;;;;;15.15;6.97;;;16.50;99.90;;;;;;6152879;23;20002;-81
2020/12/31 08:53:57;;;;;;;15.45;5.90;;;16.80;99.30;;;;;;6151818;23;20080;-83
2020/12/31 08:56:33;;;;;;;10.70;5.65;;;17.10;98.20;;;;;;6152434;23;20060;-84
2020/12/31 08:59:10;;;;;;;10.65;5.68;;;17.10;97.40;;;;;;6195963;23;20889;-81
2020/12/31 09:01:37;;;;;;;11.45;5.60;;;17.40;96.40;;;;;;6098971;23;20044;-82
2020/12/31 09:04:07;;;;;;;13.13;5.95;;;17.30;95.20;;;;;;6098703;23;20013;-84
2020/12/31 09:06:33;;;;;;;12.63;6.50;;;17.30;94.50;;;;;;6124285;23;20103;-82
2020/12/31 09:08:58;;;;;;;14.95;5.93;;;17.60;93.40;;;;;;6098194;23;20050;-82
2020/12/31 09:11:28;;;;;;;11.60;6.15;;;17.70;93.00;;;;;;6098396;23;19998;-82
2020/12/31 09:14:06;;;;;;;11.82;5.75;;;17.60;92.00;;;;;;6097504;23;20037;-82
2020/12/31 09:16:32;;;;;;;18.90;10.52;;;16.90;92.70;;;;;;6098165;23;20053;-80
2020/12/31 09:19:00;;;;;;;13.80;7.15;;;16.50;94.30;;;;;;6098285;23;20006;-83
2020/12/31 09:21:29;;;;;;;12.18;6.03;;;16.00;96.90;;;;;;6124508;23;20009;-82
2020/12/31 09:24:15;;;;;;;14.27;7.63;;;15.30;99.90;;;;;;6122696;23;20428;-83
2020/12/31 09:26:50;;;;;;;24.98;11.85;;;15.80;99.90;;;;;;6124562;23;20045;-84
2020/12/31 09:29:34;;;;;;;13.77;7.53;;;16.20;99.20;;;;;;6172562;23;20479;-86
2020/12/31 09:32:19;;;;;;;13.50;6.80;;;15.70;99.30;;;;;;6184118;23;20001;-85
2020/12/31 09:34:47;;;;;;;12.68;6.93;;;15.30;99.90;;;;;;6183386;23;20029;-85
2020/12/31 09:37:16;;;;;;;17.15;8.80;;;15.40;99.90;;;;;;6182047;23;20005;-85
2020/12/31 09:39:43;;;;;;;13.68;7.78;;;15.30;99.90;;;;;;6156969;23;20012;-85
2020/12/31 09:42:12;;;;;;;12.88;8.50;;;15.30;99.90;;;;;;6181472;23;20291;-85
2020/12/31 09:49:53;;;;;;;12.88;6.93;;;15.00;99.90;;;;;;6180028;23;20013;-84
2020/12/31 09:52:19;;;;;;;13.52;7.95;;;14.70;99.90;;;;;;6183356;23;20005;-83
2020/12/31 09:55:07;;;;;;;17.35;9.25;;;14.40;99.90;;;;;;6183273;23;20170;-83
2020/12/31 09:57:34;;;;;;;17.27;8.75;;;14.00;99.90;;;;;;6184611;23;20024;-84
2020/12/31 10:00:04;;;;;;;13.75;8.93;;;13.90;99.90;;;;;;6183196;23;20028;-85
2020/12/31 10:02:29;;;;;;;13.15;8.43;;;13.90;99.90;;;;;;6182956;23;20008;-84
2020/12/31 10:04:55;;;;;;;17.08;9.10;;;14.00;99.90;;;;;;6184681;23;20009;-84
2020/12/31 10:07:21;;;;;;;15.68;9.63;;;14.20;99.90;;;;;;6183010;23;20319;-84
2020/12/31 10:09:47;;;;;;;16.83;9.43;;;14.40;99.90;;;;;;6184819;23;20001;-85
2020/12/31 10:12:15;;;;;;;15.13;8.88;;;14.50;99.90;;;;;;6183226;23;20020;-85
2020/12/31 10:14:42;;;;;;;16.52;9.73;;;14.60;99.90;;;;;;6182815;23;20092;-84
2020/12/31 10:17:08;;;;;;;17.58;9.52;;;14.60;99.90;;;;;;6184577;23;19997;-83
2020/12/31 10:19:35;;;;;;;13.70;8.27;;;14.50;99.90;;;;;;6183003;23;20315;-83
2020/12/31 10:22:01;;;;;;;20.17;9.55;;;14.20;99.90;;;;;;6183309;23;20012;-83
2020/12/31 10:24:27;;;;;;;16.58;8.82;;;14.20;99.90;;;;;;6184223;23;20009;-84
2020/12/31 10:26:52;;;;;;;13.93;9.38;;;14.40;99.90;;;;;;6183158;23;20339;-84
2020/12/31 10:29:19;;;;;;;16.83;8.25;;;14.50;99.90;;;;;;6182866;23;20012;-82
2020/12/31 10:31:50;;;;;;;13.80;7.47;;;14.50;99.90;;;;;;6182638;23;20499;-83
2020/12/31 10:34:16;;;;;;;13.77;6.50;;;14.50;99.90;;;;;;6184785;23;20021;-83
2020/12/31 10:36:42;;;;;;;17.02;7.05;;;14.50;99.90;;;;;;6184551;23;20023;-83
2020/12/31 10:39:08;;;;;;;12.80;6.90;;;14.60;99.90;;;;;;6182541;23;20399;-83
2020/12/31 10:41:33;;;;;;;16.42;7.57;;;14.70;99.90;;;;;;6184755;23;20001;-82
2020/12/31 10:44:02;;;;;;;17.25;9.55;;;14.60;99.90;;;;;;6182842;23;20009;-81
2020/12/31 10:46:28;;;;;;;15.77;7.32;;;14.70;99.90;;;;;;6183950;23;19993;-82
2020/12/31 10:48:54;;;;;;;15.98;6.88;;;14.90;99.90;;;;;;6182505;23;20032;-83
2020/12/31 10:51:20;;;;;;;12.10;7.28;;;14.80;99.90;;;;;;6182705;23;20005;-85
2020/12/31 10:53:45;;;;;;;16.17;8.38;;;14.20;99.90;;;;;;6184058;23;20021;-83
2020/12/31 10:56:17;;;;;;;19.83;8.98;;;14.60;99.90;;;;;;6184261;23;20039;-83
2020/12/31 10:58:42;;;;;;;18.90;9.63;;;15.10;99.90;;;;;;6184548;23;20005;-81
2020/12/31 11:01:08;;;;;;;15.85;7.72;;;15.90;99.30;;;;;;6181859;23;20055;-82
2020/12/31 11:03:34;;;;;;;10.63;6.97;;;16.20;96.50;;;;;;6182153;23;20024;-84
2020/12/31 11:05:59;;;;;;;12.77;7.72;;;16.10;95.90;;;;;;6182331;23;20012;-84
2020/12/31 11:08:25;;;;;;;13.57;8.45;;;16.00;96.20;;;;;;6184115;23;20005;-84
2020/12/31 11:10:51;;;;;;;14.73;7.90;;;16.20;96.30;;;;;;6183896;23;20304;-85
2020/12/31 11:13:16;;;;;;;12.57;6.10;;;16.10;94.70;;;;;;6182410;23;20422;-85
2020/12/31 11:15:42;;;;;;;17.48;6.10;;;15.90;94.20;;;;;;6183981;23;20001;-83
2020/12/31 11:18:08;;;;;;;8.27;5.10;;;16.10;94.10;;;;;;6182225;23;20426;-84
2020/12/31 11:20:34;;;;;;;15.63;5.60;;;16.00;93.20;;;;;;6183872;23;20006;-84
2020/12/31 11:23:00;;;;;;;17.10;7.38;;;16.70;93.50;;;;;;6182458;23;19997;-83
2020/12/31 11:25:26;;;;;;;14.82;7.57;;;17.30;92.30;;;;;;6183845;23;20005;-83
2020/12/31 11:27:51;;;;;;;12.98;7.00;;;17.80;90.60;;;;;;6182621;23;20005;-84
2020/12/31 11:30:17;;;;;;;16.55;7.68;;;18.20;87.90;;;;;;6182400;23;20001;-84
2020/12/31 11:32:44;;;;;;;12.82;7.28;;;18.70;83.60;;;;;;6182155;23;19997;-84
2020/12/31 11:35:09;;;;;;;11.70;5.75;;;17.90;83.40;;;;;;6183923;23;20005;-82
2020/12/31 11:37:35;;;;;;;10.90;5.93;;;17.40;81.30;;;;;;6182139;23;20004;-84
2020/12/31 11:40:04;;;;;;;11.98;5.10;;;16.80;83.20;;;;;;6182208;23;20004;-85
2020/12/31 11:42:34;;;;;;;8.75;4.90;;;17.20;81.60;;;;;;6183932;23;19997;-84
2020/12/31 11:45:01;;;;;;;7.05;3.58;;;17.40;76.60;;;;;;6182164;23;20043;-84
2020/12/31 11:47:27;;;;;;;6.05;3.00;;;16.80;74.20;;;;;;6181792;23;20005;-83
2020/12/31 11:49:53;;;;;;;7.78;3.28;;;16.70;74.20;;;;;;6182033;23;20124;-84
2020/12/31 11:52:18;;;;;;;5.70;2.40;;;16.90;73.10;;;;;;6181835;23;20005;-81
2020/12/31 11:54:44;;;;;;;5.93;2.40;;;16.90;72.10;;;;;;6183523;23;20009;-81
2020/12/31 12:02:21;;;;;;;5.10;2.50;;;16.30;74.50;;;;;;6189136;23;20235;-82
2020/12/31 12:04:52;;;;;;;6.05;2.50;;;16.40;72.20;;;;;;6183735;23;20462;-82
2020/12/31 12:07:28;;;;;;;4.65;2.47;;;16.60;71.20;;;;;;6182186;23;20001;-83
2020/12/31 12:10:42;;;;;;;3.53;2.05;;;17.10;68.80;;;;;;6183257;23;20028;-84
2020/12/31 12:13:13;;;;;;;4.55;2.30;;;17.80;66.50;;;;;;6172603;23;20005;-83
2020/12/31 12:16:11;;;;;;;5.75;2.65;;;18.60;62.60;;;;;;6182870;23;20446;-83
2020/12/31 12:18:37;;;;;;;7.13;2.58;;;18.80;61.00;;;;;;6181867;23;20406;-82
2020/12/31 12:21:03;;;;;;;5.50;2.92;;;18.10;61.30;;;;;;6180814;23;20003;-83
2020/12/31 12:23:29;;;;;;;5.07;2.58;;;17.60;62.60;;;;;;6182520;23;20437;-83
2020/12/31 12:25:55;;;;;;;4.35;2.30;;;17.50;62.80;;;;;;6182156;23;19994;-82
2020/12/31 12:28:20;;;;;;;4.28;2.45;;;18.10;62.50;;;;;;6182363;23;20001;-82
2020/12/31 12:30:46;;;;;;;4.13;2.22;;;18.90;60.00;;;;;;6180463;23;19997;-83
2020/12/31 12:33:12;;;;;;;6.38;2.65;;;18.90;58.20;;;;;;6179936;23;20058;-84
2020/12/31 12:39:47;;;;;;;7.93;2.83;;;17.30;61.70;;;;;;6182401;23;20012;-84
2020/12/31 12:42:16;;;;;;;6.18;2.70;;;17.00;63.30;;;;;;6181924;23;20005;-84
2020/12/31 12:44:44;;;;;;;6.65;2.50;;;17.50;63.60;;;;;;6180756;23;20001;-82
2020/12/31 12:47:10;;;;;;;4.50;2.00;;;18.40;60.90;;;;;;6179902;23;20442;-83
2020/12/31 12:49:35;;;;;;;3.83;2.17;;;18.10;58.90;;;;;;6181400;23;19993;-83
2020/12/31 12:52:07;;;;;;;5.63;2.17;;;17.50;59.60;;;;;;6182534;23;20005;-84
2020/12/31 12:54:33;;;;;;;6.55;2.30;;;17.10;60.70;;;;;;6180697;23;20411;-82
2020/12/31 12:56:58;;;;;;;5.45;2.50;;;17.00;61.70;;;;;;6180237;23;20056;-81
2020/12/31 12:59:26;;;;;;;5.18;2.67;;;16.70;62.90;;;;;;6180482;23;20136;-81
2020/12/31 13:01:52;;;;;;;5.72;3.13;;;16.70;63.50;;;;;;6181393;23;20017;-84
2020/12/31 13:04:18;;;;;;;6.40;3.42;;;16.60;63.40;;;;;;6180115;23;20005;-80
2020/12/31 13:06:48;;;;;;;8.15;4.45;;;16.30;63.60;;;;;;6180304;23;20009;-82
2020/12/31 13:09:14;;;;;;;11.65;6.28;;;16.10;65.60;;;;;;6180493;23;20446;-82
2020/12/31 13:11:40;;;;;;;12.52;6.25;;;16.00;69.80;;;;;;6181909;23;20008;-81
2020/12/31 13:14:06;;;;;;;10.02;5.70;;;15.90;71.80;;;;;;6181249;23;20021;-82
2020/12/31 13:16:32;;;;;;;10.18;5.88;;;15.60;72.30;;;;;;6179996;23;20070;-83
2020/12/31 13:18:57;;;;;;;8.68;5.13;;;15.50;72.40;;;;;;6180048;23;20031;-83
2020/12/31 13:21:23;;;;;;;12.32;6.03;;;15.30;71.60;;;;;;6181652;23;20004;-82
2020/12/31 13:23:49;;;;;;;5.60;3.25;;;15.30;72.40;;;;;;6183630;23;19997;-82